Time;durP1;ratioP1;P1;durP2;ratioP2;P2;SDS_P1;SDS_P2;PMS_P1;PMS_P2;Temp;Humidity;BMP_temperature;BMP_pressure;BME280_temperature;BME280_humidity;BME280_pressure;Samples;Min_cycle;Max_cycle;Signal;HPM_P1;HPM_P2
2022/02/21 00:01:34;;;;;;;1999.90;999.90;;;5.70;99.90;;;;;;4993021;28;20200;-73
2022/02/21 00:04:00;;;;;;;1999.90;999.90;;;5.70;99.90;;;;;;4992617;28;20200;-73
2022/02/21 00:06:26;;;;;;;1999.90;999.90;;;5.70;99.90;;;;;;4992600;28;20212;-75
2022/02/21 00:08:51;;;;;;;1999.90;999.90;;;5.80;99.90;;;;;;4993685;28;20170;-75
2022/02/21 00:11:18;;;;;;;1999.90;999.90;;;5.80;99.90;;;;;;4996489;28;20161;-74
2022/02/21 00:13:44;;;;;;;1999.90;999.90;;;5.90;99.90;;;;;;4995349;28;20198;-75
2022/02/21 00:16:09;;;;;;;1999.90;999.90;;;6.00;99.90;;;;;;4995201;28;20417;-74
2022/02/21 00:18:35;;;;;;;1999.90;999.90;;;6.00;99.90;;;;;;4996538;28;20224;-75
2022/02/21 00:21:00;;;;;;;1999.90;999.90;;;6.10;99.90;;;;;;4996529;28;20221;-75
2022/02/21 00:23:26;;;;;;;1999.90;999.90;;;6.20;99.90;;;;;;4996226;28;20212;-75
2022/02/21 00:25:52;;;;;;;1999.90;999.90;;;6.30;99.90;;;;;;4996061;28;20732;-75
2022/02/21 00:28:17;;;;;;;1999.90;999.90;;;6.30;99.90;;;;;;4996308;28;20252;-75
2022/02/21 00:30:43;;;;;;;1999.90;999.90;;;6.40;99.90;;;;;;4996359;28;20168;-75
2022/02/21 00:33:08;;;;;;;1999.90;999.90;;;6.50;99.90;;;;;;4996059;28;20190;-75
2022/02/21 00:35:34;;;;;;;1999.90;999.90;;;6.50;99.90;;;;;;4995906;28;20715;-75
2022/02/21 00:38:00;;;;;;;1999.90;999.90;;;6.60;99.90;;;;;;4996136;28;20169;-75
2022/02/21 00:40:25;;;;;;;1999.90;999.90;;;6.60;99.90;;;;;;4996156;28;20249;-75
2022/02/21 00:42:51;;;;;;;1999.90;999.90;;;6.70;99.90;;;;;;4995983;28;20244;-75
2022/02/21 00:45:17;;;;;;;1999.90;999.90;;;6.80;99.90;;;;;;4995670;28;20220;-75
2022/02/21 00:47:43;;;;;;;1999.90;999.90;;;6.90;99.90;;;;;;4995962;28;20249;-75
2022/02/21 00:50:10;;;;;;;1999.90;999.90;;;7.00;99.90;;;;;;4996006;28;20487;-75
2022/02/21 00:52:35;;;;;;;1999.90;999.90;;;7.10;99.90;;;;;;4995810;28;20208;-75
2022/02/21 00:55:02;;;;;;;1999.90;999.90;;;7.20;99.90;;;;;;4995646;28;20491;-74
2022/02/21 00:57:27;;;;;;;1999.90;999.90;;;7.20;99.90;;;;;;4995854;28;20166;-75
2022/02/21 00:59:53;;;;;;;1999.90;999.90;;;7.20;99.90;;;;;;4995743;28;20409;-76
2022/02/21 01:02:18;;;;;;;1999.90;999.90;;;7.20;99.90;;;;;;4995862;28;20198;-74
2022/02/21 01:04:44;;;;;;;1999.90;999.90;;;7.20;99.90;;;;;;4995291;28;20792;-75
2022/02/21 01:07:09;;;;;;;1999.90;999.90;;;7.20;99.90;;;;;;4995615;28;20229;-74
2022/02/21 01:09:35;;;;;;;1999.90;999.90;;;6.80;99.90;;;;;;4995620;28;20503;-75
2022/02/21 01:12:01;;;;;;;1999.90;999.90;;;6.20;99.90;;;;;;4995559;28;20218;-74
2022/02/21 01:14:26;;;;;;;1999.90;999.90;;;5.60;99.90;;;;;;4995120;28;20261;-75
2022/02/21 01:16:52;;;;;;;1999.90;999.90;;;5.40;99.90;;;;;;4995618;28;20695;-75
2022/02/21 01:19:17;;;;;;;1999.90;999.90;;;5.20;99.90;;;;;;4995685;28;20177;-75
2022/02/21 01:21:43;;;;;;;1999.90;999.90;;;5.20;99.90;;;;;;4994119;28;20205;-75
2022/02/21 01:24:09;;;;;;;1999.90;999.90;;;5.20;99.90;;;;;;4995102;28;20232;-76
2022/02/21 01:26:34;;;;;;;1999.90;999.90;;;5.10;99.90;;;;;;4995886;28;20644;-75
2022/02/21 01:29:00;;;;;;;1999.90;999.90;;;5.10;99.90;;;;;;4995838;28;20176;-75
2022/02/21 01:31:25;;;;;;;1999.90;999.90;;;5.10;99.90;;;;;;4995785;28;20165;-75
2022/02/21 01:33:51;;;;;;;1999.90;999.90;;;5.10;99.90;;;;;;4995820;28;20613;-73
2022/02/21 01:36:17;;;;;;;1999.90;999.90;;;5.30;99.90;;;;;;4995342;28;20249;-75
2022/02/21 01:38:42;;;;;;;1999.90;999.90;;;5.40;99.90;;;;;;4995454;28;20235;-75
2022/02/21 01:41:08;;;;;;;1999.90;999.90;;;5.50;99.90;;;;;;4995330;28;20170;-76
2022/02/21 01:43:34;;;;;;;1999.90;999.90;;;5.50;99.90;;;;;;4995063;28;20212;-75
2022/02/21 01:46:00;;;;;;;1999.90;999.90;;;5.60;99.90;;;;;;4994929;28;20257;-75
2022/02/21 01:48:25;;;;;;;1999.90;999.90;;;5.60;99.90;;;;;;4995290;28;21134;-76
2022/02/21 01:50:51;;;;;;;1999.90;999.90;;;5.70;99.90;;;;;;4995000;28;20573;-73
2022/02/21 01:53:18;;;;;;;1999.90;999.90;;;5.70;99.90;;;;;;4994881;28;20197;-75
2022/02/21 01:55:44;;;;;;;1999.90;999.90;;;5.50;99.90;;;;;;4994725;28;20185;-75
2022/02/21 01:58:10;;;;;;;1999.90;999.90;;;5.30;99.90;;;;;;4995203;28;20177;-76
2022/02/21 02:00:36;;;;;;;1999.90;999.90;;;5.10;99.90;;;;;;4994997;28;20781;-76
2022/02/21 02:03:02;;;;;;;1999.90;999.90;;;5.00;99.90;;;;;;4994678;28;20428;-76
2022/02/21 02:05:28;;;;;;;1999.90;999.90;;;4.90;99.90;;;;;;4994154;28;20193;-76
2022/02/21 02:07:53;;;;;;;1999.90;999.90;;;5.00;99.90;;;;;;4994569;28;20169;-76
2022/02/21 02:10:19;;;;;;;1999.90;999.90;;;5.10;99.90;;;;;;4994408;28;20413;-77
2022/02/21 02:12:45;;;;;;;1999.90;999.90;;;5.20;99.90;;;;;;4994324;28;20178;-77
2022/02/21 02:15:15;;;;;;;1999.90;999.90;;;5.20;99.90;;;;;;4994132;28;20825;-76
2022/02/21 02:17:42;;;;;;;1999.90;999.90;;;5.20;99.90;;;;;;4994466;28;20423;-76
2022/02/21 02:20:09;;;;;;;1999.90;999.90;;;5.10;99.90;;;;;;4994394;28;20409;-77
2022/02/21 02:22:37;;;;;;;1999.90;999.90;;;5.20;99.90;;;;;;4994155;28;20432;-77
2022/02/21 02:25:04;;;;;;;1999.90;999.90;;;5.20;99.90;;;;;;4992801;28;20463;-77
2022/02/21 02:27:29;;;;;;;1999.90;999.90;;;5.30;99.90;;;;;;4994180;28;20397;-76
2022/02/21 02:29:58;;;;;;;1999.90;999.90;;;5.30;99.90;;;;;;4994446;28;20559;-75
2022/02/21 02:32:24;;;;;;;1999.90;999.90;;;5.20;99.90;;;;;;4993475;28;20176;-75
2022/02/21 02:34:52;;;;;;;1999.90;999.90;;;5.00;99.90;;;;;;4993917;28;20170;-75
2022/02/21 02:37:20;;;;;;;1999.90;999.90;;;5.00;99.90;;;;;;4994152;28;20401;-76
2022/02/21 02:39:45;;;;;;;1999.90;999.90;;;4.90;99.90;;;;;;4994234;28;20404;-75
2022/02/21 02:42:11;;;;;;;1999.90;999.90;;;4.80;99.90;;;;;;4994320;28;20540;-75
2022/02/21 02:44:37;;;;;;;1999.90;999.90;;;4.80;99.90;;;;;;4993901;28;20256;-75
2022/02/21 02:47:06;;;;;;;1999.90;999.90;;;4.60;99.90;;;;;;4993890;28;20170;-75
2022/02/21 02:49:33;;;;;;;1999.90;999.90;;;4.50;99.90;;;;;;4993857;28;20520;-75
2022/02/21 02:51:58;;;;;;;1999.90;999.90;;;4.40;99.90;;;;;;4993802;28;20173;-75
2022/02/21 02:54:25;;;;;;;1999.90;999.90;;;4.40;99.90;;;;;;4993447;28;20182;-75
2022/02/21 02:56:50;;;;;;;1999.90;999.90;;;4.40;99.90;;;;;;4994021;28;20177;-75
2022/02/21 02:59:16;;;;;;;1999.90;999.90;;;4.30;99.90;;;;;;4993873;28;20174;-75
2022/02/21 03:01:43;;;;;;;1999.90;999.90;;;4.10;99.90;;;;;;4995161;28;20169;-75
2022/02/21 03:04:09;;;;;;;1999.90;999.90;;;4.10;99.90;;;;;;4993917;28;20193;-75
2022/02/21 03:06:36;;;;;;;1999.90;999.90;;;4.40;99.90;;;;;;4993763;28;20535;-75
2022/02/21 03:09:03;;;;;;;1999.90;999.90;;;4.40;99.90;;;;;;4994162;28;20174;-75
2022/02/21 03:11:28;;;;;;;1999.90;999.90;;;4.50;99.90;;;;;;4994636;28;20536;-75
2022/02/21 03:13:55;;;;;;;1999.90;999.90;;;4.60;99.90;;;;;;4994627;28;20425;-75
2022/02/21 03:16:21;;;;;;;1999.90;999.90;;;4.60;99.90;;;;;;4994148;28;20173;-75
2022/02/21 03:18:46;;;;;;;1999.90;999.90;;;4.70;99.90;;;;;;4993810;28;20173;-75
2022/02/21 03:21:12;;;;;;;1999.90;999.90;;;4.70;99.90;;;;;;4993978;28;20902;-75
2022/02/21 03:23:38;;;;;;;1999.90;999.90;;;4.60;99.90;;;;;;4993640;28;20629;-75
2022/02/21 03:26:04;;;;;;;1999.90;999.90;;;4.50;99.90;;;;;;4993240;28;20202;-75
2022/02/21 03:28:29;;;;;;;1999.90;999.90;;;4.50;99.90;;;;;;4994063;28;20252;-75
2022/02/21 03:30:55;;;;;;;1999.90;999.90;;;4.60;99.90;;;;;;4993928;28;20177;-75
2022/02/21 03:33:21;;;;;;;1999.90;999.90;;;4.60;99.90;;;;;;4994261;28;20221;-75
2022/02/21 03:35:47;;;;;;;1999.90;999.90;;;4.70;99.90;;;;;;4993195;28;20193;-75
2022/02/21 03:38:13;;;;;;;1999.90;999.90;;;4.80;99.90;;;;;;4994004;28;20181;-75
2022/02/21 03:40:38;;;;;;;1999.90;999.90;;;4.80;99.90;;;;;;4993873;28;20895;-76
2022/02/21 03:43:04;;;;;;;1999.90;999.90;;;4.80;99.90;;;;;;4993349;28;20706;-76
2022/02/21 03:45:30;;;;;;;1999.90;999.90;;;4.90;99.90;;;;;;4992809;28;20248;-76
2022/02/21 03:47:56;;;;;;;1999.90;999.90;;;4.90;99.90;;;;;;4993009;28;20424;-76
2022/02/21 03:50:22;;;;;;;1999.90;999.90;;;4.90;99.90;;;;;;4992961;28;20408;-76
2022/02/21 03:52:48;;;;;;;1999.90;999.90;;;4.90;99.90;;;;;;4992912;28;20934;-76
2022/02/21 03:55:13;;;;;;;1999.90;999.90;;;4.90;99.90;;;;;;4992660;28;20243;-76
2022/02/21 03:57:39;;;;;;;1999.90;999.90;;;4.90;99.90;;;;;;4992825;28;20180;-76
2022/02/21 04:00:08;;;;;;;1999.90;999.90;;;5.00;99.90;;;;;;4993058;28;20416;-77
2022/02/21 04:02:33;;;;;;;1999.90;999.90;;;5.00;99.90;;;;;;4992732;28;20417;-76
2022/02/21 04:05:01;;;;;;;1999.90;999.90;;;5.10;99.90;;;;;;4992494;28;20567;-76
2022/02/21 04:07:27;;;;;;;1999.90;999.90;;;5.20;99.90;;;;;;4992738;28;20519;-76
2022/02/21 04:09:53;;;;;;;1999.90;999.90;;;5.30;99.90;;;;;;4992772;28;20420;-76
2022/02/21 04:12:19;;;;;;;1999.90;999.90;;;5.20;99.90;;;;;;4992841;28;20563;-76
2022/02/21 04:14:45;;;;;;;1999.90;999.90;;;5.20;99.90;;;;;;4992249;28;20520;-76
2022/02/21 04:17:10;;;;;;;1999.90;999.90;;;5.30;99.90;;;;;;4992714;28;20401;-77
2022/02/21 04:19:36;;;;;;;1999.90;999.90;;;5.30;99.90;;;;;;4992967;28;20512;-76
2022/02/21 04:22:01;;;;;;;1999.90;999.90;;;5.30;99.90;;;;;;4992784;28;20248;-77
2022/02/21 04:24:27;;;;;;;1999.90;999.90;;;5.30;99.90;;;;;;4992157;28;20236;-77
2022/02/21 04:26:53;;;;;;;1999.90;999.90;;;5.30;99.90;;;;;;4992871;28;20193;-77
2022/02/21 04:29:18;;;;;;;1999.90;999.90;;;5.30;99.90;;;;;;4992583;28;20174;-77
2022/02/21 04:31:44;;;;;;;1999.90;999.90;;;5.40;99.90;;;;;;4992945;28;20537;-76
2022/02/21 04:34:09;;;;;;;1999.90;999.90;;;5.40;99.90;;;;;;4992885;28;20197;-75
2022/02/21 04:36:38;;;;;;;1999.90;999.90;;;5.20;99.90;;;;;;4993720;28;20249;-75
2022/02/21 04:39:04;;;;;;;1999.90;999.90;;;4.90;99.90;;;;;;4993210;28;20184;-75
2022/02/21 04:41:30;;;;;;;1999.90;999.90;;;4.70;99.90;;;;;;4993317;28;20420;-76
2022/02/21 04:43:56;;;;;;;1999.90;999.90;;;4.60;99.90;;;;;;4992633;28;20189;-76
2022/02/21 04:46:22;;;;;;;1999.90;999.90;;;4.60;99.90;;;;;;4992189;28;20197;-76
2022/02/21 04:48:47;;;;;;;1999.90;999.90;;;4.60;99.90;;;;;;4992336;28;20926;-76
2022/02/21 04:51:13;;;;;;;1999.90;999.90;;;4.60;99.90;;;;;;4992225;28;20174;-76
2022/02/21 04:53:38;;;;;;;1999.90;999.90;;;4.60;99.90;;;;;;4992208;28;20288;-76
2022/02/21 04:56:04;;;;;;;1999.90;999.90;;;4.60;99.90;;;;;;4994817;28;20572;-76
2022/02/21 04:58:30;;;;;;;1999.90;999.90;;;4.70;99.90;;;;;;4994541;28;20571;-76
2022/02/21 05:00:56;;;;;;;1999.90;999.90;;;4.70;99.90;;;;;;4995835;28;20176;-76
2022/02/21 05:03:21;;;;;;;1999.90;999.90;;;4.70;99.90;;;;;;4995667;28;20463;-76
2022/02/21 05:05:47;;;;;;;1999.90;999.90;;;4.80;99.90;;;;;;4995482;28;20751;-77
2022/02/21 05:08:12;;;;;;;1999.90;999.90;;;4.80;99.90;;;;;;4995775;28;20170;-77
2022/02/21 05:10:38;;;;;;;1999.90;999.90;;;4.80;99.90;;;;;;4995745;28;20170;-77
2022/02/21 05:13:04;;;;;;;1999.90;999.90;;;4.90;99.90;;;;;;4995561;28;20189;-77
2022/02/21 05:15:29;;;;;;;1999.90;999.90;;;4.90;99.90;;;;;;4995370;28;20181;-77
2022/02/21 05:17:55;;;;;;;1999.90;999.90;;;4.90;99.90;;;;;;4995621;28;20192;-76
2022/02/21 05:20:22;;;;;;;1999.90;999.90;;;5.00;99.90;;;;;;4995505;28;20229;-77
2022/02/21 05:22:47;;;;;;;1999.90;999.90;;;5.00;99.90;;;;;;4995343;28;20884;-77
2022/02/21 05:25:13;;;;;;;1999.90;999.90;;;5.00;99.90;;;;;;4995320;28;20309;-77
2022/02/21 05:27:40;;;;;;;1999.90;999.90;;;4.90;99.90;;;;;;4995374;28;20166;-77
2022/02/21 05:30:08;;;;;;;1999.90;999.90;;;4.90;99.90;;;;;;4995250;28;20172;-76
2022/02/21 05:32:33;;;;;;;1999.90;999.90;;;4.90;99.90;;;;;;4995054;28;20178;-76
2022/02/21 05:35:00;;;;;;;1999.90;999.90;;;4.90;99.90;;;;;;5036549;23;20174;-78
2022/02/21 05:37:26;;;;;;;1999.90;999.90;;;4.90;99.90;;;;;;4995539;28;20260;-78
2022/02/21 05:39:51;;;;;;;1999.90;999.90;;;4.90;99.90;;;;;;4996188;28;20178;-78
2022/02/21 05:42:17;;;;;;;1999.90;999.90;;;4.90;99.90;;;;;;4996522;28;20202;-79
2022/02/21 05:44:42;;;;;;;1999.90;999.90;;;4.90;99.90;;;;;;4996590;28;20162;-78
2022/02/21 05:47:09;;;;;;;1999.90;999.90;;;5.00;99.90;;;;;;4996587;28;20644;-78
2022/02/21 05:49:34;;;;;;;1999.90;999.90;;;5.00;99.90;;;;;;4996619;28;20249;-78
2022/02/21 05:52:01;;;;;;;1999.90;999.90;;;5.00;99.90;;;;;;4997142;28;20260;-78
2022/02/21 05:54:27;;;;;;;1999.90;999.90;;;5.00;99.90;;;;;;4996525;28;20169;-78
2022/02/21 05:56:52;;;;;;;1999.90;999.90;;;5.00;99.90;;;;;;4997287;28;20824;-78
2022/02/21 05:59:18;;;;;;;1999.90;999.90;;;5.10;99.90;;;;;;4996814;28;20181;-78
2022/02/21 06:01:44;;;;;;;1999.90;999.90;;;5.10;99.90;;;;;;4996704;28;20405;-77
2022/02/21 06:04:10;;;;;;;1999.90;999.90;;;5.10;99.90;;;;;;4996074;28;20405;-77
2022/02/21 06:06:36;;;;;;;1999.90;999.90;;;5.00;99.90;;;;;;4996280;28;20293;-78
2022/02/21 06:09:03;;;;;;;1999.90;999.90;;;5.10;99.90;;;;;;4996276;28;20405;-77
2022/02/21 06:11:28;;;;;;;1999.90;999.90;;;5.10;99.90;;;;;;4996661;28;20185;-78
2022/02/21 06:13:54;;;;;;;1999.90;999.90;;;5.10;99.90;;;;;;4996066;28;20170;-77
2022/02/21 06:16:20;;;;;;;1999.90;999.90;;;5.10;99.90;;;;;;4995885;28;20189;-78
2022/02/21 06:18:46;;;;;;;1999.90;999.90;;;5.10;99.90;;;;;;4996203;28;20409;-79
2022/02/21 06:21:11;;;;;;;1999.90;999.90;;;5.10;99.90;;;;;;4996053;28;20463;-77
2022/02/21 06:23:37;;;;;;;1999.90;999.90;;;5.10;99.90;;;;;;4995759;28;20264;-78
2022/02/21 06:26:04;;;;;;;1999.90;999.90;;;5.10;99.90;;;;;;4996379;28;20201;-78
2022/02/21 06:28:30;;;;;;;1999.90;999.90;;;5.20;99.90;;;;;;4999916;28;20189;-77
2022/02/21 06:30:55;;;;;;;1999.90;999.90;;;5.20;99.90;;;;;;5018002;28;20177;-78
2022/02/21 06:33:21;;;;;;;1999.90;999.90;;;5.10;99.90;;;;;;5002117;28;20180;-77
2022/02/21 06:35:47;;;;;;;1999.90;999.90;;;5.10;99.90;;;;;;5003587;28;20662;-78
2022/02/21 06:38:13;;;;;;;1999.90;999.90;;;5.10;99.90;;;;;;5004505;28;20173;-77
2022/02/21 06:40:38;;;;;;;1999.90;999.90;;;5.20;99.90;;;;;;5004053;28;20170;-78
2022/02/21 06:43:04;;;;;;;1999.90;999.90;;;5.10;99.90;;;;;;5005182;28;20224;-77
2022/02/21 06:45:30;;;;;;;1999.90;999.90;;;5.10;99.90;;;;;;5004498;28;20206;-77
2022/02/21 06:47:57;;;;;;;1999.90;999.90;;;5.10;99.90;;;;;;5005285;28;20213;-78
2022/02/21 06:50:24;;;;;;;1999.90;999.90;;;5.10;99.90;;;;;;5006123;28;20173;-78
2022/02/21 06:52:50;;;;;;;1999.90;999.90;;;5.10;99.90;;;;;;5004653;28;20420;-78
2022/02/21 06:55:16;;;;;;;1999.90;999.90;;;5.10;99.90;;;;;;4998398;28;20193;-77
2022/02/21 06:57:43;;;;;;;1999.90;999.90;;;5.10;99.90;;;;;;4996506;28;20456;-77
2022/02/21 07:00:09;;;;;;;1999.90;999.90;;;5.00;99.90;;;;;;4996818;28;20416;-76
2022/02/21 07:02:35;;;;;;;1999.90;999.90;;;5.00;99.90;;;;;;4997034;28;20413;-77
2022/02/21 07:05:02;;;;;;;1999.90;999.90;;;5.00;99.90;;;;;;4996905;28;20408;-76
2022/02/21 07:07:27;;;;;;;1999.90;999.90;;;5.00;99.90;;;;;;4997979;28;20216;-77
2022/02/21 07:09:53;;;;;;;1999.90;999.90;;;5.00;99.90;;;;;;4996852;28;20409;-77
2022/02/21 07:12:19;;;;;;;1999.90;999.90;;;5.00;99.90;;;;;;4996900;28;20174;-78
2022/02/21 07:14:44;;;;;;;1999.90;999.90;;;5.00;99.90;;;;;;4996876;28;20162;-77
2022/02/21 07:17:10;;;;;;;1999.90;999.90;;;5.00;99.90;;;;;;4996600;28;20660;-78
2022/02/21 07:19:35;;;;;;;1999.90;999.90;;;5.20;99.90;;;;;;4996750;28;20172;-77
2022/02/21 07:22:01;;;;;;;1999.90;999.90;;;5.20;99.90;;;;;;4996892;28;20259;-77
2022/02/21 07:24:27;;;;;;;1999.90;999.90;;;5.10;99.90;;;;;;4996788;28;20173;-77
2022/02/21 07:26:53;;;;;;;1999.90;999.90;;;5.20;99.90;;;;;;4997058;28;20573;-77
2022/02/21 07:29:18;;;;;;;1999.90;999.90;;;5.20;99.90;;;;;;4996215;28;20480;-78
2022/02/21 07:31:44;;;;;;;1999.90;999.90;;;5.20;99.90;;;;;;4995839;28;20173;-78
2022/02/21 07:34:09;;;;;;;1999.90;999.90;;;5.30;99.90;;;;;;4994983;28;20176;-78
2022/02/21 07:36:35;;;;;;;1999.90;999.90;;;5.20;99.90;;;;;;4995399;28;20678;-78
2022/02/21 07:39:04;;;;;;;1999.90;999.90;;;5.30;99.90;;;;;;4995490;28;20301;-78
2022/02/21 07:41:29;;;;;;;1999.90;999.90;;;5.30;99.90;;;;;;4995023;28;20166;-78
2022/02/21 07:43:55;;;;;;;1999.90;999.90;;;5.30;99.90;;;;;;4995149;28;20261;-78
2022/02/21 07:46:21;;;;;;;1999.90;999.90;;;5.30;99.90;;;;;;4995128;28;20694;-78
2022/02/21 07:48:46;;;;;;;1999.90;999.90;;;5.40;99.90;;;;;;4994595;28;20176;-77
2022/02/21 07:51:12;;;;;;;1999.90;999.90;;;5.30;99.90;;;;;;4994712;28;20212;-78
2022/02/21 07:53:38;;;;;;;1999.90;999.90;;;5.40;99.90;;;;;;4994987;28;20647;-78
2022/02/21 07:56:03;;;;;;;1999.90;999.90;;;5.30;99.90;;;;;;4994552;28;20564;-78
2022/02/21 07:58:29;;;;;;;1999.90;999.90;;;5.30;99.90;;;;;;4993110;28;20180;-78
2022/02/21 08:00:55;;;;;;;1999.90;999.90;;;5.30;99.90;;;;;;4992754;28;20407;-78
2022/02/21 08:03:20;;;;;;;1999.90;999.90;;;5.30;99.90;;;;;;4992783;28;20245;-78
2022/02/21 08:05:46;;;;;;;1999.90;999.90;;;5.30;99.90;;;;;;4992176;28;20489;-78
2022/02/21 08:08:12;;;;;;;1999.90;999.90;;;5.20;99.90;;;;;;4992698;28;20515;-78
2022/02/21 08:10:37;;;;;;;1999.90;999.90;;;5.20;99.90;;;;;;4992850;28;20419;-78
2022/02/21 08:13:03;;;;;;;1999.90;999.90;;;5.30;99.90;;;;;;4992629;28;20165;-78
2022/02/21 08:15:29;;;;;;;1999.90;999.90;;;5.30;99.90;;;;;;4992367;28;20198;-77
2022/02/21 08:17:55;;;;;;;1999.90;999.90;;;5.30;99.90;;;;;;4992689;28;20169;-78
2022/02/21 08:20:23;;;;;;;1999.90;999.90;;;5.30;99.90;;;;;;4992853;28;20496;-78
2022/02/21 08:22:49;;;;;;;1999.90;999.90;;;5.30;99.90;;;;;;4995281;28;20409;-78
2022/02/21 08:25:16;;;;;;;1999.90;999.90;;;5.30;99.90;;;;;;4994023;28;20198;-78
2022/02/21 08:27:42;;;;;;;1999.90;999.90;;;5.30;99.90;;;;;;4994758;28;20428;-77
2022/02/21 08:30:12;;;;;;;1999.90;999.90;;;5.40;99.90;;;;;;4996555;28;20401;-79
2022/02/21 08:32:38;;;;;;;1999.90;999.90;;;5.40;99.90;;;;;;4998747;28;20451;-78
2022/02/21 08:35:04;;;;;;;1999.90;999.90;;;5.40;99.90;;;;;;4998368;28;20400;-78
2022/02/21 08:37:30;;;;;;;1999.90;999.90;;;5.40;99.90;;;;;;4998377;28;20448;-77
2022/02/21 08:39:56;;;;;;;1999.90;999.90;;;5.50;99.90;;;;;;4998539;28;20584;-77
2022/02/21 08:42:21;;;;;;;1999.90;999.90;;;5.50;99.90;;;;;;4998690;28;20174;-78
2022/02/21 08:44:47;;;;;;;1999.90;999.90;;;5.60;99.90;;;;;;4998406;28;20169;-78
2022/02/21 08:47:15;;;;;;;1999.90;999.90;;;5.70;99.90;;;;;;4998745;28;20193;-78
2022/02/21 08:49:41;;;;;;;1999.90;999.90;;;5.70;99.90;;;;;;4998208;28;20166;-78
2022/02/21 08:52:07;;;;;;;1999.90;999.90;;;5.70;99.90;;;;;;4998135;28;20957;-78
2022/02/21 08:54:35;;;;;;;1999.90;999.90;;;5.80;99.90;;;;;;4998220;28;20404;-78
2022/02/21 08:57:05;;;;;;;1999.90;999.90;;;5.80;99.90;;;;;;4998178;28;20192;-77
2022/02/21 08:59:31;;;;;;;1999.90;999.90;;;5.90;99.90;;;;;;4997747;28;20424;-78
2022/02/21 09:01:57;;;;;;;1999.90;999.90;;;6.00;99.90;;;;;;4997431;28;20504;-78
2022/02/21 09:04:22;;;;;;;1999.90;999.90;;;6.00;99.90;;;;;;4995312;28;20445;-78
2022/02/21 09:06:48;;;;;;;1999.90;999.90;;;6.10;99.90;;;;;;4995663;28;20228;-78
2022/02/21 09:09:14;;;;;;;1999.90;999.90;;;6.10;99.90;;;;;;4995740;28;20181;-78
2022/02/21 09:11:40;;;;;;;1999.90;999.90;;;6.20;99.90;;;;;;4995612;28;20185;-78
2022/02/21 09:14:06;;;;;;;1999.90;999.90;;;6.20;99.90;;;;;;4994442;28;20455;-76
2022/02/21 09:16:31;;;;;;;1999.90;999.90;;;6.30;99.90;;;;;;5000298;28;20436;-76
2022/02/21 09:18:57;;;;;;;1999.90;999.90;;;6.30;99.90;;;;;;4996775;28;20244;-78
2022/02/21 09:21:23;;;;;;;1999.90;999.90;;;6.40;99.90;;;;;;4996398;28;20174;-76
2022/02/21 09:23:49;;;;;;;1999.90;999.90;;;6.50;99.90;;;;;;4998832;28;20645;-76
2022/02/21 09:26:23;;;;;;;1999.90;999.90;;;6.50;99.90;;;;;;4994175;23;20226;-78
2022/02/21 09:47:58;;;;;;;1999.90;999.90;;;7.40;99.90;;;;;;5272320;23;20483;-77
2022/02/21 09:50:26;;;;;;;1999.90;999.90;;;7.50;99.90;;;;;;5016549;28;20400;-76
2022/02/21 09:52:53;;;;;;;1999.90;999.90;;;7.50;99.90;;;;;;5018413;28;20885;-76
2022/02/21 09:55:36;;;;;;;1999.90;999.90;;;7.60;99.90;;;;;;5042087;23;20434;-77
2022/02/21 09:58:39;;;;;;;;;;;;;;;;;;;;;
2022/02/21 10:11:29;;;;;;;1999.90;999.90;;;7.20;99.90;;;;;;4997306;28;20398;-77
2022/02/21 10:14:08;;;;;;;1999.90;999.90;;;7.40;99.90;;;;;;4998832;28;20400;-76
2022/02/21 10:16:59;;;;;;;1999.90;999.90;;;7.40;99.90;;;;;;4998858;28;20447;-77
2022/02/21 10:27:13;;;;;;;1999.90;999.90;;;7.20;99.90;;;;;;4897846;29;21057;-76
2022/02/21 10:30:16;;;;;;;;;;;;;;;;;;;;;
2022/02/21 10:32:54;;;;;;;1999.90;999.90;;;6.50;99.90;;;;;;4932747;29;20792;-76
2022/02/21 10:35:25;;;;;;;1999.90;999.90;;;6.70;99.90;;;;;;4936190;29;20479;-76
2022/02/21 10:37:57;;;;;;;1999.90;999.90;;;6.30;99.90;;;;;;4935675;29;20929;-76
2022/02/21 10:40:36;;;;;;;1999.90;999.90;;;6.20;99.90;;;;;;4964600;28;20431;-77
2022/02/21 10:43:20;;;;;;;1999.90;999.90;;;6.00;99.90;;;;;;4994121;28;20413;-77
2022/02/21 10:45:48;;;;;;;1999.90;999.90;;;5.60;99.90;;;;;;4994177;28;20460;-78
2022/02/21 10:48:20;;;;;;;1999.90;999.90;;;5.50;99.90;;;;;;4995318;28;20856;-77
2022/02/21 10:50:57;;;;;;;1999.90;999.90;;;5.30;99.90;;;;;;4995611;28;20170;-77
2022/02/21 10:53:24;;;;;;;1999.90;999.90;;;5.30;99.90;;;;;;4994419;28;20168;-77
2022/02/21 11:32:35;;;;;;;1999.90;999.90;;;5.00;99.90;;;;;;5219253;23;20480;-77
2022/02/21 11:41:39;;;;;;;1999.90;999.90;;;4.80;99.90;;;;;;5013455;28;20215;-75
2022/02/21 11:47:57;;;;;;;1999.90;999.90;;;4.70;99.90;;;;;;4937301;29;20444;-76
2022/02/21 11:50:45;;;;;;;1999.90;999.90;;;4.70;99.90;;;;;;4991829;28;20170;-76
2022/02/21 11:57:14;;;;;;;1999.90;999.90;;;4.70;99.90;;;;;;5035853;23;20280;-76
2022/02/21 12:03:26;;;;;;;1999.90;999.90;;;4.80;99.90;;;;;;4982757;28;20914;-76
2022/02/21 12:11:51;;;;;;;1999.90;999.90;;;5.00;99.90;;;;;;4282241;26;20486;-75
2022/02/21 12:40:36;;;;;;;1999.90;999.90;;;4.80;99.90;;;;;;5170703;23;21415;-76
2022/02/21 12:49:02;;;;;;;1999.90;999.90;;;5.50;99.90;;;;;;5498775;23;20483;-76
2022/02/21 12:51:32;;;;;;;1999.90;999.90;;;5.50;99.90;;;;;;5011742;28;20542;-75
2022/02/21 12:54:06;;;;;;;1999.90;999.90;;;5.80;99.90;;;;;;5010239;28;20408;-76
2022/02/21 12:57:04;;;;;;;1999.90;999.90;;;5.60;99.90;;;;;;5010969;28;20699;-76
2022/02/21 12:59:32;;;;;;;1999.90;999.90;;;5.50;99.90;;;;;;5003324;28;20997;-77
2022/02/21 13:02:05;;;;;;;1999.90;999.90;;;5.50;99.90;;;;;;5010931;28;20419;-76
2022/02/21 13:04:35;;;;;;;1999.90;999.90;;;5.50;99.90;;;;;;5011094;28;20408;-76
2022/02/21 13:07:02;;;;;;;1999.90;999.90;;;5.60;99.90;;;;;;5011149;28;20444;-77
2022/02/21 13:09:29;;;;;;;1999.90;999.90;;;5.60;99.90;;;;;;5010430;28;20423;-77
2022/02/21 13:11:56;;;;;;;1999.90;999.90;;;5.60;99.90;;;;;;5010808;28;20411;-77
2022/02/21 13:14:25;;;;;;;1999.90;999.90;;;5.60;99.90;;;;;;5010651;28;20408;-77
2022/02/21 13:16:56;;;;;;;1999.90;999.90;;;5.70;99.90;;;;;;5011877;28;20451;-76
2022/02/21 13:19:42;;;;;;;1999.90;999.90;;;5.80;99.90;;;;;;5014596;28;20431;-76
2022/02/21 13:22:16;;;;;;;1999.90;999.90;;;5.90;99.90;;;;;;5014667;28;20400;-77
2022/02/21 13:24:47;;;;;;;1999.90;999.90;;;6.10;99.90;;;;;;5013807;28;20408;-76
2022/02/21 13:27:22;;;;;;;1999.90;999.90;;;6.20;99.90;;;;;;5014202;28;20956;-75
2022/02/21 13:29:49;;;;;;;1999.90;999.90;;;6.30;99.90;;;;;;5014412;28;20415;-77
2022/02/21 13:32:22;;;;;;;1999.90;999.90;;;6.40;99.90;;;;;;5013679;28;20416;-75
2022/02/21 13:34:54;;;;;;;1999.90;999.90;;;6.40;99.90;;;;;;5013950;28;20415;-76
2022/02/21 13:37:25;;;;;;;1999.90;999.90;;;6.40;99.90;;;;;;5014284;28;20412;-75
2022/02/21 13:39:59;;;;;;;1999.90;999.90;;;6.30;99.90;;;;;;5013866;28;20781;-76
2022/02/21 13:43:01;;;;;;;1999.90;999.90;;;6.20;99.90;;;;;;5014241;28;20439;-76
2022/02/21 13:45:48;;;;;;;1999.90;999.90;;;6.10;99.90;;;;;;5001765;28;20243;-76
2022/02/21 13:48:23;;;;;;;1999.90;999.90;;;6.10;99.90;;;;;;5013360;28;20957;-76
2022/02/21 13:50:51;;;;;;;1999.90;999.90;;;6.10;99.90;;;;;;5014559;28;20920;-76
2022/02/21 13:53:33;;;;;;;1999.90;999.90;;;6.10;99.90;;;;;;5014090;28;20451;-76
2022/02/21 13:56:09;;;;;;;1999.90;999.90;;;6.10;99.90;;;;;;5013456;28;20430;-76
2022/02/21 13:58:40;;;;;;;1999.90;999.90;;;6.10;99.90;;;;;;5013514;28;20415;-76
2022/02/21 14:01:09;;;;;;;1999.90;999.90;;;6.20;99.90;;;;;;5012431;28;20519;-76
2022/02/21 14:03:40;;;;;;;1999.90;999.90;;;6.20;99.90;;;;;;5014015;28;20447;-75
2022/02/21 14:06:06;;;;;;;1999.90;999.90;;;6.30;99.90;;;;;;5013622;28;20845;-76
2022/02/21 14:08:51;;;;;;;1999.90;999.90;;;6.20;99.90;;;;;;5013516;28;20424;-76
2022/02/21 14:11:20;;;;;;;1999.90;999.90;;;6.30;99.90;;;;;;4994451;28;20476;-76
2022/02/21 14:13:46;;;;;;;1999.90;999.90;;;6.30;99.90;;;;;;4994687;28;20903;-76
2022/02/21 14:16:12;;;;;;;1999.90;999.90;;;6.30;99.90;;;;;;4993584;28;20435;-76
2022/02/21 14:18:38;;;;;;;1999.90;999.90;;;6.50;99.90;;;;;;4994314;28;20405;-76
2022/02/21 14:21:05;;;;;;;1999.90;999.90;;;6.50;99.90;;;;;;4993479;28;20234;-76
2022/02/21 14:23:32;;;;;;;1999.90;999.90;;;6.70;99.90;;;;;;4995100;28;20408;-76